Terminal Aerodrome Forecast
Issued by NWS Lake Charles, LA

Current Version | Previous Version | Text Only | Print | Product List | Glossary On
Versions: 1 2 3 4 5 6 7 8 9 10 11 12 13 14
000
FTUS44 KLCH 210520
TAFAEX
TAF
KAEX 210520Z 2106/2206 00000KT P6SM SKC
     FM211500 14004KT P6SM BKN050
     FM220000 08003KT P6SM BKN025=

USA.gov is the U.S. government's official web portal to all federal, state and local government web resources and services.